Terminal Aerodrome Forecast
Issued by NWS

Home | Current Version | Previous Version | Graphics & Text | Print | Product List | Glossary On
Versions: 1 2 3 4 5 6 7 8 9 10 11 12 13 14 15 16 17 18 19 20 21 22 23 24 25 26 27 28 29 30 31 32 33 34 35 36
000
FTUS45 KGGW 271100
TAFOLF
TAF
KOLF 271120Z 2712/2812 08010KT P6SM OVC060
     FM271300 08010KT 4SM -SN OVC025
     FM271700 09010KT 5SM -FZRA OVC015
     FM272100 VRB06KT P6SM OVC011
     FM280000 00000KT P6SM BKN013=

USA.gov is the U.S. government's official web portal to all federal, state and local government web resources and services.